首页
METAR-TAF:

METAR-TAF

机场 :

河狸溪, 育康省, 加拿大

纬度: 62-25N, 经度: 140-52W, 海拔: 649米

当前天气观测

该预报发布于10小时和48分钟前的23:00 UTC
风速2节,风向多变
温度 -19°C
湿度 84%
气压 1003 hPa
能見度: 48.3公里
少量云层高于1500英尺
多云层高于12000英尺

METAR: CYXQ 112300Z VRB02KT 30SM FEW015 BKN120 M19/M21 A2962 RMK SC1AC4 LAST STFD OBS/NXT 121700Z SLP097

时间: 01:48 (09:48 UTC)


TAF: 丢失

超过4000个机场的气象观测和天气预报(METAR&TAF报告)。

可查询的气象台以黄色和红色小点在地图上表示。

将鼠标移到小点上方,可查看气象台名称。

然后点击查看天气观测和预报。

如需切换地图:点击带黑十字的绿色按钮放大地图;点击带横线的绿色按钮缩小地图;或者点击绿色箭头查看邻近地区的地图。


METAR-TAF: